METAR Data
IDs: Format: Raw Decoded Include TAF

Data at: 0737 UTC 09 Apr 2020

Region: TOP
KATL 090652Z 28010KT 8SM OVC005 20/18 A2974 RMK AO2 SLP063 BINOVC T02000183

KBOS 090654Z 20009KT 10SM CLR 06/01 A2958 RMK AO2 SLP016 T00610006

KBWI 090654Z 08003KT 8SM BKN250 11/09 A2955 RMK AO2 SLP004 T01110089

KCLE 090722Z 29007KT 10SM FEW011 BKN024 OVC046 10/07 A2949 RMK AO2 T01000072

KCLT 090652Z 00000KT 10SM BKN250 16/13 A2963 RMK AO2 SLP027 T01610128 $

KCVG 090705Z 28011KT 8SM FEW003 FEW019 BKN025 OVC130 13/12 A2961 RMK AO2 T01280117 $

KDCA 090652Z 00000KT 9SM BKN240 14/11 A2954 RMK AO2 SLP003 T01440106

KDEN 090653Z 10006KT 10SM FEW180 03/M02 A3013 RMK AO2 SLP164 T00331017 402060017

KDFW 090653Z VRB03KT 10SM SCT250 BKN300 22/11 A2982 RMK AO2 SLP088 T02220106

KDTW 090653Z 29009KT 10SM SCT025 BKN055 OVC085 10/08 A2951 RMK AO2 SLP991 T01000078 $

KEWR 090651Z 23003KT 10SM FEW035 08/06 A2962 RMK AO2 SLP028 T00830061

KFLL 090653Z AUTO 26006KT 10SM CLR 23/21 A2989 RMK AO2 SLP121 T02330211 $

KIAD 090652Z 00000KT 10SM OVC240 10/07 A2954 RMK AO2 SLP999 T01000067

KIAH 090653Z 23004KT 10SM BKN230 24/21 A2987 RMK AO2 SLP115 T02440206

KJFK 090651Z 20006KT 10SM FEW009 FEW250 08/08 A2962 RMK AO2 SLP030 T00780078

KLAS 090656Z 18007KT 10SM SCT075 BKN180 11/02 A3002 RMK AO2 SLP154 T01060022

KLAX 090653Z 09008KT 10SM -RA FEW016 SCT028 BKN040 OVC200 13/07 A3010 RMK AO2 RAB53 SLP190 P0000 T01280067 $

KLGA 090651Z 22005KT 10SM CLR 10/06 A2961 RMK AO2 SLP026 T01000056

KMCO 090653Z 25008KT 10SM SCT008 23/21 A2986 RMK AO2 SLP111 T02280211 $

KMDW 090653Z 30020G26KT 10SM FEW150 08/01 A2971 RMK AO2 PK WND 30026/0645 SLP057 T00830011

KMEM 090733Z 01025G31KT 10SM FEW015 SCT029 BKN044 21/16 A2973 RMK AO2 PK WND 36031/0733 WSHFT 0713 LTG DSNT SE-SW T02110161

KMIA 090653Z 25005KT 10SM FEW025 24/21 A2990 RMK AO2 SLP126 T02390211

KMSP 090653Z 30010KT 10SM CLR 02/M06 A2987 RMK AO2 PK WND 31026/0623 SLP120 T00221056 $

KORD 090651Z 29016G27KT 10SM FEW250 08/M01 A2970 RMK AO2 PK WND 30029/0615 SLP056 T00831011

KPDX 090653Z 29005KT 10SM CLR 12/03 A3014 RMK AO2 SLP206 T01220028

KPHL 090654Z 00000KT 10SM SCT280 08/06 A2960 RMK AO2 SLP021 T00830061

KPHX 090651Z 23004KT 10SM FEW095 14/04 A3004 RMK AO2 SLP162 T01440044 402830144

KPIT 090651Z 19016G34KT 9SM -RA BKN036 OVC075 13/08 A2941 RMK AO2 PK WND 17037/0632 LTG DSNT SE AND S SLP961 P0006 T01330078 $

KSAN 090651Z 12009KT 10SM FEW036 BKN050 BKN065 14/09 A3013 RMK AO2 SLP203 VCSH T01390089

KSEA 090653Z 01006KT 10SM FEW250 09/03 A3021 RMK AO2 SLP238 T00940028

KSFO 090656Z 21005KT 10SM FEW026 SCT029 SCT200 12/08 A2997 RMK AO2 SLP147 T01170078

KSLC 090654Z 25008KT 10SM FEW200 10/03 A2998 RMK AO2 SLP121 T01000028 402110056

KSTL 090651Z 34011G17KT 10SM CLR 12/03 A2993 RMK AO2 SLP125 T01170033 $

KTPA 090653Z 23010KT 10SM FEW010 24/21 A2988 RMK AO2 SLP118 T02390211